sensor_id;sensor_type;location;lat;lon;timestamp;pressure;altitude;pressure_sealevel;temperature;humidity
21111;BME280;10713;51.912;4.494;2023-04-29T00:00:06;101594.00;;;10.64;100.00
21111;BME280;10713;51.912;4.494;2023-04-29T00:02:32;101600.03;;;10.69;100.00
21111;BME280;10713;51.912;4.494;2023-04-29T00:04:58;101599.50;;;10.56;100.00
21111;BME280;10713;51.912;4.494;2023-04-29T00:07:23;101594.13;;;10.59;100.00
21111;BME280;10713;51.912;4.494;2023-04-29T00:09:48;101598.50;;;10.60;100.00
21111;BME280;10713;51.912;4.494;2023-04-29T00:12:14;101591.34;;;10.64;100.00
21111;BME280;10713;51.912;4.494;2023-04-29T00:14:39;101594.00;;;10.64;100.00
21111;BME280;10713;51.912;4.494;2023-04-29T00:17:07;101590.56;;;10.60;100.00
21111;BME280;10713;51.912;4.494;2023-04-29T00:19:32;101595.91;;;10.59;100.00
21111;BME280;10713;51.912;4.494;2023-04-29T00:21:58;101596.72;;;10.61;100.00
21111;BME280;10713;51.912;4.494;2023-04-29T00:24:23;101607.25;;;10.63;100.00
21111;BME280;10713;51.912;4.494;2023-04-29T00:26:49;101596.72;;;10.61;100.00
21111;BME280;10713;51.912;4.494;2023-04-29T00:29:14;101608.22;;;10.58;100.00
21111;BME280;10713;51.912;4.494;2023-04-29T00:31:39;101604.78;;;10.56;100.00
21111;BME280;10713;51.912;4.494;2023-04-29T00:34:05;101611.00;;;10.54;100.00
21111;BME280;10713;51.912;4.494;2023-04-29T00:36:30;101615.59;;;10.47;100.00
21111;BME280;10713;51.912;4.494;2023-04-29T00:38:56;101613.09;;;10.41;100.00
21111;BME280;10713;51.912;4.494;2023-04-29T00:41:23;101620.16;;;10.41;100.00
21111;BME280;10713;51.912;4.494;2023-04-29T00:43:48;101620.22;;;10.39;100.00
21111;BME280;10713;51.912;4.494;2023-04-29T00:46:13;101614.09;;;10.37;100.00
21111;BME280;10713;51.912;4.494;2023-04-29T00:48:39;101628.22;;;10.34;100.00
21111;BME280;10713;51.912;4.494;2023-04-29T00:51:05;101610.69;;;10.33;100.00
21111;BME280;10713;51.912;4.494;2023-04-29T00:53:31;101625.66;;;10.31;100.00
21111;BME280;10713;51.912;4.494;2023-04-29T00:55:57;101625.59;;;10.34;100.00
21111;BME280;10713;51.912;4.494;2023-04-29T00:58:24;101627.22;;;10.38;100.00
21111;BME280;10713;51.912;4.494;2023-04-29T01:00:57;101622.00;;;10.37;100.00
21111;BME280;10713;51.912;4.494;2023-04-29T01:03:23;101626.34;;;10.40;100.00
21111;BME280;10713;51.912;4.494;2023-04-29T01:06:06;101635.13;;;10.40;100.00
21111;BME280;10713;51.912;4.494;2023-04-29T01:11:28;101637.88;;;10.35;100.00
21111;BME280;10713;51.912;4.494;2023-04-29T01:13:59;101638.09;;;10.28;100.00
21111;BME280;10713;51.912;4.494;2023-04-29T01:16:43;101641.63;;;10.27;100.00
21111;BME280;10713;51.912;4.494;2023-04-29T01:19:24;101644.28;;;10.24;100.00
21111;BME280;10713;51.912;4.494;2023-04-29T01:21:51;101650.44;;;10.24;100.00
21111;BME280;10713;51.912;4.494;2023-04-29T01:24:17;101639.25;;;10.14;100.00
21111;BME280;10713;51.912;4.494;2023-04-29T01:26:46;101654.22;;;10.14;100.00
21111;BME280;10713;51.912;4.494;2023-04-29T01:29:36;101650.59;;;10.18;100.00
21111;BME280;10713;51.912;4.494;2023-04-29T01:32:10;101655.94;;;10.15;100.00
21111;BME280;10713;51.912;4.494;2023-04-29T01:34:47;101653.22;;;10.20;100.00
21111;BME280;10713;51.912;4.494;2023-04-29T01:37:36;101646.31;;;10.14;100.00
21111;BME280;10713;51.912;4.494;2023-04-29T01:42:38;101653.22;;;10.18;100.00
21111;BME280;10713;51.912;4.494;2023-04-29T01:45:09;101654.94;;;10.21;100.00
21111;BME280;10713;51.912;4.494;2023-04-29T01:47:36;101654.84;;;10.24;100.00
21111;BME280;10713;51.912;4.494;2023-04-29T01:50:03;101662.91;;;10.18;100.00
21111;BME280;10713;51.912;4.494;2023-04-29T01:52:28;101655.78;;;10.21;100.00
21111;BME280;10713;51.912;4.494;2023-04-29T01:54:54;101659.34;;;10.20;100.00
21111;BME280;10713;51.912;4.494;2023-04-29T01:57:19;101655.72;;;10.24;100.00
21111;BME280;10713;51.912;4.494;2023-04-29T01:59:45;101657.47;;;10.25;100.00
21111;BME280;10713;51.912;4.494;2023-04-29T02:02:10;101654.22;;;10.14;100.00
21111;BME280;10713;51.912;4.494;2023-04-29T02:04:35;101658.63;;;10.13;100.00
21111;BME280;10713;51.912;4.494;2023-04-29T02:07:01;101660.25;;;10.19;100.00
21111;BME280;10713;51.912;4.494;2023-04-29T02:09:28;101668.03;;;10.25;100.00
21111;BME280;10713;51.912;4.494;2023-04-29T02:11:53;101666.09;;;10.33;100.00
21111;BME280;10713;51.912;4.494;2023-04-29T02:14:18;101665.38;;;10.25;100.00
21111;BME280;10713;51.912;4.494;2023-04-29T02:16:44;101667.25;;;10.22;100.00
21111;BME280;10713;51.912;4.494;2023-04-29T02:19:10;101669.97;;;10.17;100.00
21111;BME280;10713;51.912;4.494;2023-04-29T02:21:35;101671.84;;;10.12;100.00
21111;BME280;10713;51.912;4.494;2023-04-29T02:24:00;101685.03;;;10.13;100.00
21111;BME280;10713;51.912;4.494;2023-04-29T02:26:26;101684.28;;;10.07;100.00
21111;BME280;10713;51.912;4.494;2023-04-29T02:28:52;101688.81;;;10.02;100.00
21111;BME280;10713;51.912;4.494;2023-04-29T02:31:17;101692.16;;;10.08;100.00
21111;BME280;10713;51.912;4.494;2023-04-29T02:33:42;101695.66;;;10.10;100.00
21111;BME280;10713;51.912;4.494;2023-04-29T02:36:08;101688.44;;;10.17;100.00
21111;BME280;10713;51.912;4.494;2023-04-29T02:38:33;101695.28;;;10.26;100.00
21111;BME280;10713;51.912;4.494;2023-04-29T02:40:59;101702.13;;;10.34;100.00
21111;BME280;10713;51.912;4.494;2023-04-29T02:43:24;101702.91;;;10.38;100.00
21111;BME280;10713;51.912;4.494;2023-04-29T02:45:50;101703.66;;;10.45;100.00
21111;BME280;10713;51.912;4.494;2023-04-29T02:48:16;101707.16;;;10.45;100.00
21111;BME280;10713;51.912;4.494;2023-04-29T02:50:41;101711.91;;;10.31;100.00
21111;BME280;10713;51.912;4.494;2023-04-29T02:53:06;101719.84;;;10.29;100.00
21111;BME280;10713;51.912;4.494;2023-04-29T02:55:32;101721.69;;;10.24;100.00
21111;BME280;10713;51.912;4.494;2023-04-29T02:57:58;101720.94;;;10.19;100.00
21111;BME280;10713;51.912;4.494;2023-04-29T03:00:23;101723.59;;;10.19;100.00
21111;BME280;10713;51.912;4.494;2023-04-29T03:02:49;101726.91;;;10.29;100.00
21111;BME280;10713;51.912;4.494;2023-04-29T03:05:14;101726.81;;;10.32;100.00
21111;BME280;10713;51.912;4.494;2023-04-29T03:07:40;101731.13;;;10.36;100.00
21111;BME280;10713;51.912;4.494;2023-04-29T03:10:06;101726.91;;;10.29;100.00
21111;BME280;10713;51.912;4.494;2023-04-29T03:12:31;101733.00;;;10.31;100.00
21111;BME280;10713;51.912;4.494;2023-04-29T03:14:56;101738.16;;;10.35;100.00
21111;BME280;10713;51.912;4.494;2023-04-29T03:17:22;101728.41;;;10.39;100.00
21111;BME280;10713;51.912;4.494;2023-04-29T03:19:47;101725.72;;;10.41;100.00
21111;BME280;10713;51.912;4.494;2023-04-29T03:22:12;101728.50;;;10.36;100.00
21111;BME280;10713;51.912;4.494;2023-04-29T03:24:38;101731.88;;;10.41;100.00
21111;BME280;10713;51.912;4.494;2023-04-29T03:27:03;101730.78;;;10.50;100.00
21111;BME280;10713;51.912;4.494;2023-04-29T03:29:29;101732.56;;;10.49;100.00
21111;BME280;10713;51.912;4.494;2023-04-29T03:31:55;101739.69;;;10.46;100.00
21111;BME280;10713;51.912;4.494;2023-04-29T03:34:21;101737.16;;;10.41;100.00
21111;BME280;10713;51.912;4.494;2023-04-29T03:36:47;101738.69;;;10.50;100.00
21111;BME280;10713;51.912;4.494;2023-04-29T03:39:12;101736.81;;;10.55;100.00
21111;BME280;10713;51.912;4.494;2023-04-29T03:41:38;101737.69;;;10.55;100.00
21111;BME280;10713;51.912;4.494;2023-04-29T03:44:04;101735.97;;;10.53;100.00
21111;BME280;10713;51.912;4.494;2023-04-29T03:46:29;101732.69;;;10.45;100.00
21111;BME280;10713;51.912;4.494;2023-04-29T03:48:55;101741.63;;;10.39;100.00
21111;BME280;10713;51.912;4.494;2023-04-29T03:51:22;101742.47;;;10.40;100.00
21111;BME280;10713;51.912;4.494;2023-04-29T03:53:47;101749.63;;;10.36;100.00
21111;BME280;10713;51.912;4.494;2023-04-29T03:56:13;101740.81;;;10.35;100.00
21111;BME280;10713;51.912;4.494;2023-04-29T03:58:38;101748.53;;;10.43;100.00
21111;BME280;10713;51.912;4.494;2023-04-29T04:01:04;101752.88;;;10.46;100.00
21111;BME280;10713;51.912;4.494;2023-04-29T04:03:29;101751.88;;;10.50;100.00
21111;BME280;10713;51.912;4.494;2023-04-29T04:05:54;101753.50;;;10.55;100.00
21111;BME280;10713;51.912;4.494;2023-04-29T04:08:20;101751.78;;;10.56;100.00
21111;BME280;10713;51.912;4.494;2023-04-29T04:10:45;101751.69;;;10.59;100.00
21111;BME280;10713;51.912;4.494;2023-04-29T04:13:10;101750.00;;;10.55;100.00
21111;BME280;10713;51.912;4.494;2023-04-29T04:15:36;101760.81;;;10.46;100.00
21111;BME280;10713;51.912;4.494;2023-04-29T04:18:01;101772.13;;;10.51;100.00
21111;BME280;10713;51.912;4.494;2023-04-29T04:20:27;101768.56;;;10.52;100.00
21111;BME280;10713;51.912;4.494;2023-04-29T04:22:52;101772.06;;;10.52;100.00
21111;BME280;10713;51.912;4.494;2023-04-29T04:25:19;101770.53;;;10.44;100.00
21111;BME280;10713;51.912;4.494;2023-04-29T04:27:44;101767.09;;;10.40;100.00
21111;BME280;10713;51.912;4.494;2023-04-29T04:30:10;101780.13;;;10.48;100.00
21111;BME280;10713;51.912;4.494;2023-04-29T04:32:36;101784.38;;;10.53;100.00
21111;BME280;10713;51.912;4.494;2023-04-29T04:35:01;101783.38;;;10.59;100.00
21111;BME280;10713;51.912;4.494;2023-04-29T04:37:27;101792.38;;;10.50;100.00
21111;BME280;10713;51.912;4.494;2023-04-29T04:39:52;101793.25;;;10.49;100.00
21111;BME280;10713;51.912;4.494;2023-04-29T04:42:18;101794.13;;;10.50;100.00
21111;BME280;10713;51.912;4.494;2023-04-29T04:44:43;101800.94;;;10.60;100.00
21111;BME280;10713;51.912;4.494;2023-04-29T04:47:08;101796.69;;;10.53;100.00
21111;BME280;10713;51.912;4.494;2023-04-29T04:49:35;101794.94;;;10.53;100.00
21111;BME280;10713;51.912;4.494;2023-04-29T04:52:01;101809.09;;;10.49;100.00
21111;BME280;10713;51.912;4.494;2023-04-29T04:54:26;101811.66;;;10.54;100.00
21111;BME280;10713;51.912;4.494;2023-04-29T04:56:51;101811.66;;;10.54;100.00
21111;BME280;10713;51.912;4.494;2023-04-29T04:59:17;101814.38;;;10.49;100.00
21111;BME280;10713;51.912;4.494;2023-04-29T05:01:42;101828.50;;;10.48;100.00
21111;BME280;10713;51.912;4.494;2023-04-29T05:04:07;101822.16;;;10.55;100.00
21111;BME280;10713;51.912;4.494;2023-04-29T05:06:33;101828.25;;;10.59;100.00
21111;BME280;10713;51.912;4.494;2023-04-29T05:08:58;101831.84;;;10.56;100.00
21111;BME280;10713;51.912;4.494;2023-04-29T05:11:23;101825.72;;;10.53;100.00
21111;BME280;10713;51.912;4.494;2023-04-29T05:13:49;101832.78;;;10.54;100.00
21111;BME280;10713;51.912;4.494;2023-04-29T05:16:14;101838.69;;;10.64;100.00
21111;BME280;10713;51.912;4.494;2023-04-29T05:18:42;101837.03;;;10.59;100.00
21111;BME280;10713;51.912;4.494;2023-04-29T05:21:10;101841.69;;;10.48;100.00
21111;BME280;10713;51.912;4.494;2023-04-29T05:23:35;101843.47;;;10.48;100.00
21111;BME280;10713;51.912;4.494;2023-04-29T05:26:00;101850.38;;;10.53;100.00
21111;BME280;10713;51.912;4.494;2023-04-29T05:28:25;101854.91;;;10.48;100.00
21111;BME280;10713;51.912;4.494;2023-04-29T05:30:51;101854.69;;;10.57;100.00
21111;BME280;10713;51.912;4.494;2023-04-29T05:33:16;101858.13;;;10.61;100.00
21111;BME280;10713;51.912;4.494;2023-04-29T05:35:42;101866.97;;;10.58;100.00
21111;BME280;10713;51.912;4.494;2023-04-29T05:38:07;101865.09;;;10.64;100.00
21111;BME280;10713;51.912;4.494;2023-04-29T05:40:33;101863.19;;;10.70;100.00
21111;BME280;10713;51.912;4.494;2023-04-29T05:42:58;101860.44;;;10.75;100.00
21111;BME280;10713;51.912;4.494;2023-04-29T05:45:24;101864.94;;;10.71;100.00
21111;BME280;10713;51.912;4.494;2023-04-29T05:47:49;101865.69;;;10.76;100.00
21111;BME280;10713;51.912;4.494;2023-04-29T05:50:15;101878.84;;;10.78;100.00
21111;BME280;10713;51.912;4.494;2023-04-29T05:52:40;101871.69;;;10.83;100.00
21111;BME280;10713;51.912;4.494;2023-04-29T05:55:06;101885.59;;;10.90;100.00
21111;BME280;10713;51.912;4.494;2023-04-29T05:57:31;101885.44;;;10.97;100.00
21111;BME280;10713;51.912;4.494;2023-04-29T05:59:57;101884.56;;;10.97;100.00
21111;BME280;10713;51.912;4.494;2023-04-29T06:02:24;101886.28;;;10.98;100.00
21111;BME280;10713;51.912;4.494;2023-04-29T06:04:49;101897.66;;;11.01;100.00
21111;BME280;10713;51.912;4.494;2023-04-29T06:07:16;101904.00;;;10.94;100.00
21111;BME280;10713;51.912;4.494;2023-04-29T06:09:41;101905.09;;;10.86;100.00
21111;BME280;10713;51.912;4.494;2023-04-29T06:12:08;101907.81;;;10.81;100.00
21111;BME280;10713;51.912;4.494;2023-04-29T06:14:33;101904.31;;;10.82;100.00
21111;BME280;10713;51.912;4.494;2023-04-29T06:16:58;101914.66;;;10.90;100.00
21111;BME280;10713;51.912;4.494;2023-04-29T06:19:24;101924.22;;;10.95;100.00
21111;BME280;10713;51.912;4.494;2023-04-29T06:21:49;101925.84;;;11.01;100.00
21111;BME280;10713;51.912;4.494;2023-04-29T06:24:15;101928.34;;;11.07;100.00
21111;BME280;10713;51.912;4.494;2023-04-29T06:26:40;101924.75;;;11.11;100.00
21111;BME280;10713;51.912;4.494;2023-04-29T06:29:06;101932.59;;;11.14;100.00
21111;BME280;10713;51.912;4.494;2023-04-29T06:31:31;101926.31;;;11.18;100.00
21111;BME280;10713;51.912;4.494;2023-04-29T06:33:56;101929.94;;;11.14;100.00
21111;BME280;10713;51.912;4.494;2023-04-29T06:36:22;101932.41;;;11.22;100.00
21111;BME280;10713;51.912;4.494;2023-04-29T06:38:47;101930.47;;;11.28;100.00
21111;BME280;10713;51.912;4.494;2023-04-29T06:41:12;101937.19;;;11.42;100.00
21111;BME280;10713;51.912;4.494;2023-04-29T06:43:38;101928.28;;;11.46;100.00
21111;BME280;10713;51.912;4.494;2023-04-29T06:46:03;101936.97;;;11.51;100.00
21111;BME280;10713;51.912;4.494;2023-04-29T06:48:28;101947.28;;;11.62;100.00
21111;BME280;10713;51.912;4.494;2023-04-29T06:50:55;101949.91;;;11.96;100.00
21111;BME280;10713;51.912;4.494;2023-04-29T06:53:21;101942.88;;;12.26;100.00
21111;BME280;10713;51.912;4.494;2023-04-29T06:55:47;101955.88;;;12.65;100.00
21111;BME280;10713;51.912;4.494;2023-04-29T06:58:13;101952.97;;;13.01;100.00
21111;BME280;10713;51.912;4.494;2023-04-29T07:00:39;101954.72;;;13.30;100.00
21111;BME280;10713;51.912;4.494;2023-04-29T07:03:05;101958.72;;;13.43;100.00
21111;BME280;10713;51.912;4.494;2023-04-29T07:05:31;101959.34;;;13.50;100.00
21111;BME280;10713;51.912;4.494;2023-04-29T07:07:56;101962.88;;;13.50;100.00
21111;BME280;10713;51.912;4.494;2023-04-29T07:10:21;101960.69;;;13.63;100.00
21111;BME280;10713;51.912;4.494;2023-04-29T07:12:47;101972.94;;;13.92;100.00
21111;BME280;10713;51.912;4.494;2023-04-29T07:15:12;101972.81;;;14.20;100.00
21111;BME280;10713;51.912;4.494;2023-04-29T07:17:37;101970.56;;;14.33;100.00
21111;BME280;10713;51.912;4.494;2023-04-29T07:20:03;101966.19;;;14.32;100.00
21111;BME280;10713;51.912;4.494;2023-04-29T07:22:29;101964.47;;;14.31;100.00
21111;BME280;10713;51.912;4.494;2023-04-29T07:24:55;101977.06;;;14.50;100.00
21111;BME280;10713;51.912;4.494;2023-04-29T07:27:21;101962.69;;;14.55;100.00
21111;BME280;10713;51.912;4.494;2023-04-29T07:29:47;101961.81;;;14.78;100.00
21111;BME280;10713;51.912;4.494;2023-04-29T07:32:12;101969.31;;;15.13;100.00
21111;BME280;10713;51.912;4.494;2023-04-29T07:34:38;101968.38;;;15.36;100.00
21111;BME280;10713;51.912;4.494;2023-04-29T07:37:03;101965.13;;;15.29;100.00
21111;BME280;10713;51.912;4.494;2023-04-29T07:39:28;101962.44;;;15.07;100.00
21111;BME280;10713;51.912;4.494;2023-04-29T07:41:54;101968.16;;;14.98;100.00
21111;BME280;10713;51.912;4.494;2023-04-29T07:44:20;101967.13;;;15.44;100.00
21111;BME280;10713;51.912;4.494;2023-04-29T07:46:46;101957.16;;;16.31;100.00
21111;BME280;10713;51.912;4.494;2023-04-29T07:49:11;101947.50;;;16.29;100.00
21111;BME280;10713;51.912;4.494;2023-04-29T07:51:40;101953.69;;;16.29;100.00
21111;BME280;10713;51.912;4.494;2023-04-29T07:54:05;101948.59;;;16.62;100.00
21111;BME280;10713;51.912;4.494;2023-04-29T07:56:31;101955.16;;;17.83;100.00
21111;BME280;10713;51.912;4.494;2023-04-29T07:58:56;101949.91;;;18.64;100.00
21111;BME280;10713;51.912;4.494;2023-04-29T08:01:23;101941.59;;;19.62;100.00
21111;BME280;10713;51.912;4.494;2023-04-29T08:03:49;101937.53;;;20.71;100.00
21111;BME280;10713;51.912;4.494;2023-04-29T08:06:14;101934.59;;;21.95;100.00
21111;BME280;10713;51.912;4.494;2023-04-29T08:08:40;101926.75;;;23.04;100.00
21111;BME280;10713;51.912;4.494;2023-04-29T08:11:05;101927.91;;;23.95;100.00
21111;BME280;10713;51.912;4.494;2023-04-29T08:13:30;101922.88;;;24.69;100.00
21111;BME280;10713;51.912;4.494;2023-04-29T08:15:56;101921.78;;;25.15;100.00
21111;BME280;10713;51.912;4.494;2023-04-29T08:18:21;101924.84;;;26.05;100.00
21111;BME280;10713;51.912;4.494;2023-04-29T08:20:47;101922.09;;;25.54;100.00
21111;BME280;10713;51.912;4.494;2023-04-29T08:23:13;101927.22;;;24.15;100.00
21111;BME280;10713;51.912;4.494;2023-04-29T08:25:42;101932.91;;;22.69;100.00
21111;BME280;10713;51.912;4.494;2023-04-29T08:28:08;101935.38;;;21.45;100.00
21111;BME280;10713;51.912;4.494;2023-04-29T08:30:37;101942.31;;;20.52;100.00
21111;BME280;10713;51.912;4.494;2023-04-29T08:33:02;101952.38;;;19.91;100.00
21111;BME280;10713;51.912;4.494;2023-04-29T08:35:28;101959.72;;;19.57;100.00
21111;BME280;10713;51.912;4.494;2023-04-29T08:37:53;101959.25;;;19.04;100.00
21111;BME280;10713;51.912;4.494;2023-04-29T08:40:18;101965.09;;;18.63;100.00
21111;BME280;10713;51.912;4.494;2023-04-29T08:42:44;101960.28;;;18.21;100.00
21111;BME280;10713;51.912;4.494;2023-04-29T08:45:11;101961.53;;;18.14;100.00
21111;BME280;10713;51.912;4.494;2023-04-29T08:47:37;101966.25;;;18.42;100.00
21111;BME280;10713;51.912;4.494;2023-04-29T08:50:04;101962.09;;;18.36;100.00
21111;BME280;10713;51.912;4.494;2023-04-29T08:52:30;101963.59;;;18.42;100.00
21111;BME280;10713;51.912;4.494;2023-04-29T08:54:57;101972.69;;;18.22;100.00
21111;BME280;10713;51.912;4.494;2023-04-29T08:57:24;101966.41;;;18.23;100.00
21111;BME280;10713;51.912;4.494;2023-04-29T08:59:50;101963.28;;;18.15;100.00
21111;BME280;10713;51.912;4.494;2023-04-29T09:02:16;101968.38;;;18.68;100.00
21111;BME280;10713;51.912;4.494;2023-04-29T09:04:46;101979.63;;;19.07;100.00
21111;BME280;10713;51.912;4.494;2023-04-29T09:07:12;101964.66;;;19.95;100.00
21111;BME280;10713;51.912;4.494;2023-04-29T09:09:38;101967.75;;;21.29;100.00
21111;BME280;10713;51.912;4.494;2023-04-29T09:12:05;101962.63;;;22.17;100.00
21111;BME280;10713;51.912;4.494;2023-04-29T09:14:31;101964.66;;;22.52;96.21
21111;BME280;10713;51.912;4.494;2023-04-29T09:17:00;101959.81;;;22.57;100.00
21111;BME280;10713;51.912;4.494;2023-04-29T09:19:29;101970.31;;;22.85;95.76
21111;BME280;10713;51.912;4.494;2023-04-29T09:21:56;101961.94;;;23.14;92.56
21111;BME280;10713;51.912;4.494;2023-04-29T09:24:29;101970.31;;;23.57;86.32
21111;BME280;10713;51.912;4.494;2023-04-29T09:26:56;101964.22;;;24.02;84.79
21111;BME280;10713;51.912;4.494;2023-04-29T09:29:22;101981.47;;;23.05;82.88
21111;BME280;10713;51.912;4.494;2023-04-29T09:31:48;101981.06;;;21.45;89.33
21111;BME280;10713;51.912;4.494;2023-04-29T09:34:14;101982.09;;;20.74;97.42
21111;BME280;10713;51.912;4.494;2023-04-29T09:36:50;101983.44;;;20.09;89.23
21111;BME280;10713;51.912;4.494;2023-04-29T09:39:22;101978.75;;;19.68;100.00
21111;BME280;10713;51.912;4.494;2023-04-29T09:44:16;101983.19;;;19.84;100.00
21111;BME280;10713;51.912;4.494;2023-04-29T09:46:42;101990.91;;;19.28;100.00
21111;BME280;10713;51.912;4.494;2023-04-29T09:49:28;101997.81;;;18.68;97.92
21111;BME280;10713;51.912;4.494;2023-04-29T09:51:58;101997.53;;;18.73;100.00
21111;BME280;10713;51.912;4.494;2023-04-29T09:54:25;101994.38;;;18.16;100.00
21111;BME280;10713;51.912;4.494;2023-04-29T09:56:53;101996.72;;;17.89;100.00
21111;BME280;10713;51.912;4.494;2023-04-29T09:59:19;101996.13;;;18.50;100.00
21111;BME280;10713;51.912;4.494;2023-04-29T10:01:55;101994.13;;;18.87;99.48
21111;BME280;10713;51.912;4.494;2023-04-29T10:04:23;102000.59;;;19.15;100.00
21111;BME280;10713;51.912;4.494;2023-04-29T10:06:52;102009.22;;;19.20;100.00
21111;BME280;10713;51.912;4.494;2023-04-29T10:09:18;102003.00;;;19.81;100.00
21111;BME280;10713;51.912;4.494;2023-04-29T10:11:45;102010.50;;;20.05;96.72
21111;BME280;10713;51.912;4.494;2023-04-29T10:14:13;102010.34;;;20.51;90.72
21111;BME280;10713;51.912;4.494;2023-04-29T10:17:04;102007.41;;;20.41;83.88
21111;BME280;10713;51.912;4.494;2023-04-29T10:19:38;102011.19;;;20.08;88.36
21111;BME280;10713;51.912;4.494;2023-04-29T10:22:09;102019.50;;;19.43;93.78
21111;BME280;10713;51.912;4.494;2023-04-29T10:24:36;102019.53;;;19.11;99.85
21111;BME280;10713;51.912;4.494;2023-04-29T10:27:06;102021.06;;;18.84;99.01
21111;BME280;10713;51.912;4.494;2023-04-29T10:29:33;102014.41;;;18.75;100.00
21111;BME280;10713;51.912;4.494;2023-04-29T10:32:02;102019.00;;;19.21;100.00
21111;BME280;10713;51.912;4.494;2023-04-29T10:34:28;102009.75;;;19.56;98.54
21111;BME280;10713;51.912;4.494;2023-04-29T10:36:56;102011.84;;;19.51;90.23
21111;BME280;10713;51.912;4.494;2023-04-29T10:42:17;102010.72;;;18.60;86.98
21111;BME280;10713;51.912;4.494;2023-04-29T10:53:14;102000.38;;;20.24;87.09
21111;BME280;10713;51.912;4.494;2023-04-29T10:55:41;101996.84;;;20.38;92.95
21111;BME280;10713;51.912;4.494;2023-04-29T10:58:34;101995.72;;;21.12;68.40
21111;BME280;10713;51.912;4.494;2023-04-29T11:01:00;101993.91;;;21.67;84.94
21111;BME280;10713;51.912;4.494;2023-04-29T11:04:00;102005.53;;;21.40;65.61
21111;BME280;10713;51.912;4.494;2023-04-29T11:09:01;102003.66;;;20.29;73.50
21111;BME280;10713;51.912;4.494;2023-04-29T11:14:09;102007.94;;;20.03;63.17
21111;BME280;10713;51.912;4.494;2023-04-29T11:16:46;102009.09;;;20.13;66.27
21111;BME280;10713;51.912;4.494;2023-04-29T11:19:14;102011.41;;;19.59;67.54
21111;BME280;10713;51.912;4.494;2023-04-29T11:21:39;102015.78;;;19.60;65.14
21111;BME280;10713;51.912;4.494;2023-04-29T11:24:05;102007.31;;;19.84;67.32
21111;BME280;10713;51.912;4.494;2023-04-29T11:26:34;102011.00;;;20.40;67.42
21111;BME280;10713;51.912;4.494;2023-04-29T11:29:00;102006.47;;;20.56;61.88
21111;BME280;10713;51.912;4.494;2023-04-29T11:31:31;102006.31;;;20.15;61.13
21111;BME280;10713;51.912;4.494;2023-04-29T11:33:58;102010.44;;;19.60;63.39
21111;BME280;10713;51.912;4.494;2023-04-29T11:36:23;102017.69;;;19.12;65.99
21111;BME280;10713;51.912;4.494;2023-04-29T11:38:49;102013.63;;;19.05;69.75
21111;BME280;10713;51.912;4.494;2023-04-29T11:41:15;102021.22;;;19.28;73.15
21111;BME280;10713;51.912;4.494;2023-04-29T11:43:41;102015.41;;;19.36;68.46
21111;BME280;10713;51.912;4.494;2023-04-29T11:46:14;102012.91;;;19.49;65.36
21111;BME280;10713;51.912;4.494;2023-04-29T11:48:47;102015.38;;;19.06;63.66
21111;BME280;10713;51.912;4.494;2023-04-29T11:51:14;102019.19;;;18.68;64.35
21111;BME280;10713;51.912;4.494;2023-04-29T11:53:40;102012.56;;;18.42;67.07
21111;BME280;10713;51.912;4.494;2023-04-29T11:56:07;102010.50;;;18.48;66.14
21111;BME280;10713;51.912;4.494;2023-04-29T11:58:33;102008.09;;;17.92;67.25
21111;BME280;10713;51.912;4.494;2023-04-29T12:00:59;102018.25;;;17.67;69.07
21111;BME280;10713;51.912;4.494;2023-04-29T12:03:25;102020.13;;;17.47;70.10
21111;BME280;10713;51.912;4.494;2023-04-29T12:08:20;102022.00;;;17.09;73.48
21111;BME280;10713;51.912;4.494;2023-04-29T12:10:46;102012.84;;;16.96;77.59
21111;BME280;10713;51.912;4.494;2023-04-29T12:13:12;102010.50;;;17.26;77.51
21111;BME280;10713;51.912;4.494;2023-04-29T12:15:38;102011.38;;;17.26;76.36
21111;BME280;10713;51.912;4.494;2023-04-29T12:18:04;102015.88;;;17.43;76.29
21111;BME280;10713;51.912;4.494;2023-04-29T12:20:29;102008.44;;;17.67;78.43
21111;BME280;10713;51.912;4.494;2023-04-29T12:22:55;102014.75;;;18.01;74.36
21111;BME280;10713;51.912;4.494;2023-04-29T12:25:24;102017.59;;;17.81;74.43
21111;BME280;10713;51.912;4.494;2023-04-29T12:27:50;102016.91;;;17.58;76.88
21111;BME280;10713;51.912;4.494;2023-04-29T12:30:16;102021.03;;;17.83;78.67
21111;BME280;10713;51.912;4.494;2023-04-29T12:32:41;102021.19;;;17.97;77.05
21111;BME280;10713;51.912;4.494;2023-04-29T12:35:16;102019.22;;;18.18;77.23
21111;BME280;10713;51.912;4.494;2023-04-29T12:37:42;102020.78;;;18.22;78.97
21111;BME280;10713;51.912;4.494;2023-04-29T12:40:12;102026.78;;;17.92;72.72
21111;BME280;10713;51.912;4.494;2023-04-29T12:42:39;102027.22;;;17.66;76.49
21111;BME280;10713;51.912;4.494;2023-04-29T12:45:05;102021.03;;;17.29;78.89
21111;BME280;10713;51.912;4.494;2023-04-29T12:47:32;102024.72;;;17.07;81.53
21111;BME280;10713;51.912;4.494;2023-04-29T12:50:01;102031.31;;;17.00;81.93
21111;BME280;10713;51.912;4.494;2023-04-29T12:52:27;102031.16;;;17.03;85.75
21111;BME280;10713;51.912;4.494;2023-04-29T12:54:52;102019.19;;;17.48;93.87
21111;BME280;10713;51.912;4.494;2023-04-29T12:57:18;102024.31;;;17.70;92.68
21111;BME280;10713;51.912;4.494;2023-04-29T12:59:43;102021.78;;;17.67;94.74
21111;BME280;10713;51.912;4.494;2023-04-29T13:02:08;102032.28;;;17.89;95.67
21111;BME280;10713;51.912;4.494;2023-04-29T13:04:34;102031.63;;;18.19;97.08
21111;BME280;10713;51.912;4.494;2023-04-29T13:06:59;102021.78;;;18.37;94.42